sensor_id;sensor_type;location;lat;lon;timestamp;P1;durP1;ratioP1;P2;durP2;ratioP2
56991;SDS011;42885;49.754;18.636;2022-11-24T00:01:56;117.03;;;42.95;;
56991;SDS011;42885;49.754;18.636;2022-11-24T00:04:27;115.73;;;44.30;;
56991;SDS011;42885;49.754;18.636;2022-11-24T00:06:58;113.65;;;40.58;;
56991;SDS011;42885;49.754;18.636;2022-11-24T00:09:29;114.97;;;41.10;;
56991;SDS011;42885;49.754;18.636;2022-11-24T00:12:00;103.62;;;40.05;;
56991;SDS011;42885;49.754;18.636;2022-11-24T00:14:31;114.67;;;42.40;;
56991;SDS011;42885;49.754;18.636;2022-11-24T00:17:01;122.47;;;44.00;;
56991;SDS011;42885;49.754;18.636;2022-11-24T00:19:32;115.10;;;42.50;;
56991;SDS011;42885;49.754;18.636;2022-11-24T00:22:03;105.87;;;42.75;;
56991;SDS011;42885;49.754;18.636;2022-11-24T00:24:34;118.40;;;43.60;;
56991;SDS011;42885;49.754;18.636;2022-11-24T00:27:05;115.27;;;43.10;;
56991;SDS011;42885;49.754;18.636;2022-11-24T00:29:36;103.58;;;42.53;;
56991;SDS011;42885;49.754;18.636;2022-11-24T00:32:06;113.15;;;41.83;;
56991;SDS011;42885;49.754;18.636;2022-11-24T00:34:37;113.30;;;41.77;;
56991;SDS011;42885;49.754;18.636;2022-11-24T00:37:09;104.38;;;40.17;;
56991;SDS011;42885;49.754;18.636;2022-11-24T00:39:40;113.07;;;42.13;;
56991;SDS011;42885;49.754;18.636;2022-11-24T00:42:11;103.43;;;41.27;;
56991;SDS011;42885;49.754;18.636;2022-11-24T00:44:42;99.22;;;38.70;;
56991;SDS011;42885;49.754;18.636;2022-11-24T00:47:13;109.30;;;42.25;;
56991;SDS011;42885;49.754;18.636;2022-11-24T00:49:44;112.52;;;43.02;;
56991;SDS011;42885;49.754;18.636;2022-11-24T00:52:16;99.10;;;41.20;;
56991;SDS011;42885;49.754;18.636;2022-11-24T00:54:46;86.82;;;38.38;;
56991;SDS011;42885;49.754;18.636;2022-11-24T00:57:17;92.12;;;41.25;;
56991;SDS011;42885;49.754;18.636;2022-11-24T00:59:48;96.80;;;41.10;;
56991;SDS011;42885;49.754;18.636;2022-11-24T01:02:19;90.62;;;40.50;;
56991;SDS011;42885;49.754;18.636;2022-11-24T01:04:50;82.92;;;40.08;;
56991;SDS011;42885;49.754;18.636;2022-11-24T01:07:21;77.65;;;37.45;;
56991;SDS011;42885;49.754;18.636;2022-11-24T01:09:52;74.22;;;36.38;;
56991;SDS011;42885;49.754;18.636;2022-11-24T01:12:22;76.30;;;36.95;;
56991;SDS011;42885;49.754;18.636;2022-11-24T01:14:53;80.75;;;37.58;;
56991;SDS011;42885;49.754;18.636;2022-11-24T01:17:25;65.10;;;34.53;;
56991;SDS011;42885;49.754;18.636;2022-11-24T01:19:56;72.17;;;35.20;;
56991;SDS011;42885;49.754;18.636;2022-11-24T01:22:27;74.80;;;35.13;;
56991;SDS011;42885;49.754;18.636;2022-11-24T01:24:58;68.60;;;34.90;;
56991;SDS011;42885;49.754;18.636;2022-11-24T01:27:29;74.20;;;36.03;;
56991;SDS011;42885;49.754;18.636;2022-11-24T01:30:00;70.12;;;35.00;;
56991;SDS011;42885;49.754;18.636;2022-11-24T01:32:32;63.80;;;32.88;;
56991;SDS011;42885;49.754;18.636;2022-11-24T01:35:04;62.33;;;32.67;;
56991;SDS011;42885;49.754;18.636;2022-11-24T01:37:36;58.50;;;31.97;;
56991;SDS011;42885;49.754;18.636;2022-11-24T01:40:07;62.00;;;32.75;;
56991;SDS011;42885;49.754;18.636;2022-11-24T01:42:42;60.10;;;31.93;;
56991;SDS011;42885;49.754;18.636;2022-11-24T01:45:32;56.85;;;31.07;;
56991;SDS011;42885;49.754;18.636;2022-11-24T01:48:31;56.27;;;30.37;;
56991;SDS011;42885;49.754;18.636;2022-11-24T01:50:59;61.95;;;31.55;;
56991;SDS011;42885;49.754;18.636;2022-11-24T01:55:59;59.20;;;31.05;;
56991;SDS011;42885;49.754;18.636;2022-11-24T01:58:30;59.73;;;31.20;;
56991;SDS011;42885;49.754;18.636;2022-11-24T02:01:03;59.35;;;31.75;;
56991;SDS011;42885;49.754;18.636;2022-11-24T02:03:36;58.42;;;30.57;;
56991;SDS011;42885;49.754;18.636;2022-11-24T02:06:13;60.27;;;29.97;;
56991;SDS011;42885;49.754;18.636;2022-11-24T02:08:47;62.78;;;30.82;;
56991;SDS011;42885;49.754;18.636;2022-11-24T02:11:20;59.03;;;31.75;;
56991;SDS011;42885;49.754;18.636;2022-11-24T02:13:54;56.70;;;31.00;;
56991;SDS011;42885;49.754;18.636;2022-11-24T02:16:26;56.48;;;29.90;;
56991;SDS011;42885;49.754;18.636;2022-11-24T02:18:57;53.60;;;29.87;;
56991;SDS011;42885;49.754;18.636;2022-11-24T02:21:30;53.20;;;30.85;;
56991;SDS011;42885;49.754;18.636;2022-11-24T02:24:15;55.50;;;29.85;;
56991;SDS011;42885;49.754;18.636;2022-11-24T02:26:44;53.42;;;29.60;;
56991;SDS011;42885;49.754;18.636;2022-11-24T02:29:17;54.80;;;29.12;;
56991;SDS011;42885;49.754;18.636;2022-11-24T02:31:54;52.78;;;28.38;;
56991;SDS011;42885;49.754;18.636;2022-11-24T02:34:23;56.55;;;29.30;;
56991;SDS011;42885;49.754;18.636;2022-11-24T02:36:53;53.87;;;29.30;;
56991;SDS011;42885;49.754;18.636;2022-11-24T02:39:25;51.92;;;28.25;;
56991;SDS011;42885;49.754;18.636;2022-11-24T02:41:57;52.43;;;28.75;;
56991;SDS011;42885;49.754;18.636;2022-11-24T02:44:31;52.15;;;29.00;;
56991;SDS011;42885;49.754;18.636;2022-11-24T02:47:10;59.30;;;29.50;;
56991;SDS011;42885;49.754;18.636;2022-11-24T02:49:38;54.77;;;28.45;;
56991;SDS011;42885;49.754;18.636;2022-11-24T02:52:09;52.78;;;28.25;;
56991;SDS011;42885;49.754;18.636;2022-11-24T02:54:40;57.13;;;28.40;;
56991;SDS011;42885;49.754;18.636;2022-11-24T02:57:11;56.20;;;29.23;;
56991;SDS011;42885;49.754;18.636;2022-11-24T02:59:42;53.80;;;28.47;;
56991;SDS011;42885;49.754;18.636;2022-11-24T03:02:14;50.80;;;27.70;;
56991;SDS011;42885;49.754;18.636;2022-11-24T03:04:45;53.20;;;28.70;;
56991;SDS011;42885;49.754;18.636;2022-11-24T03:07:16;54.55;;;27.62;;
56991;SDS011;42885;49.754;18.636;2022-11-24T03:09:47;54.48;;;29.23;;
56991;SDS011;42885;49.754;18.636;2022-11-24T03:12:18;49.65;;;27.70;;
56991;SDS011;42885;49.754;18.636;2022-11-24T03:14:48;55.00;;;28.50;;
56991;SDS011;42885;49.754;18.636;2022-11-24T03:17:19;51.92;;;27.05;;
56991;SDS011;42885;49.754;18.636;2022-11-24T03:19:50;56.15;;;28.35;;
56991;SDS011;42885;49.754;18.636;2022-11-24T03:22:21;50.23;;;26.95;;
56991;SDS011;42885;49.754;18.636;2022-11-24T03:24:52;52.27;;;28.47;;
56991;SDS011;42885;49.754;18.636;2022-11-24T03:27:23;53.23;;;28.17;;
56991;SDS011;42885;49.754;18.636;2022-11-24T03:29:54;54.90;;;29.07;;
56991;SDS011;42885;49.754;18.636;2022-11-24T03:32:25;51.65;;;27.75;;
56991;SDS011;42885;49.754;18.636;2022-11-24T03:34:56;54.75;;;29.00;;
56991;SDS011;42885;49.754;18.636;2022-11-24T03:37:26;57.30;;;29.35;;
56991;SDS011;42885;49.754;18.636;2022-11-24T03:39:57;52.27;;;27.87;;
56991;SDS011;42885;49.754;18.636;2022-11-24T03:42:28;57.03;;;29.20;;
56991;SDS011;42885;49.754;18.636;2022-11-24T03:45:00;58.73;;;30.00;;
56991;SDS011;42885;49.754;18.636;2022-11-24T03:47:31;62.00;;;29.70;;
56991;SDS011;42885;49.754;18.636;2022-11-24T03:50:02;59.65;;;30.10;;
56991;SDS011;42885;49.754;18.636;2022-11-24T03:52:33;62.75;;;30.25;;
56991;SDS011;42885;49.754;18.636;2022-11-24T03:55:04;58.68;;;29.70;;
56991;SDS011;42885;49.754;18.636;2022-11-24T03:57:35;57.98;;;29.27;;
56991;SDS011;42885;49.754;18.636;2022-11-24T04:00:06;60.57;;;30.67;;
56991;SDS011;42885;49.754;18.636;2022-11-24T04:02:38;64.85;;;31.17;;
56991;SDS011;42885;49.754;18.636;2022-11-24T04:05:09;62.67;;;30.35;;
56991;SDS011;42885;49.754;18.636;2022-11-24T04:07:40;61.42;;;31.40;;
56991;SDS011;42885;49.754;18.636;2022-11-24T04:10:11;61.13;;;29.92;;
56991;SDS011;42885;49.754;18.636;2022-11-24T04:12:42;67.32;;;31.57;;
56991;SDS011;42885;49.754;18.636;2022-11-24T04:15:14;62.27;;;30.43;;
56991;SDS011;42885;49.754;18.636;2022-11-24T04:17:47;64.10;;;31.10;;
56991;SDS011;42885;49.754;18.636;2022-11-24T04:20:18;62.85;;;28.98;;
56991;SDS011;42885;49.754;18.636;2022-11-24T04:22:49;65.62;;;31.02;;
56991;SDS011;42885;49.754;18.636;2022-11-24T04:25:20;71.82;;;32.15;;
56991;SDS011;42885;49.754;18.636;2022-11-24T04:27:52;71.42;;;32.38;;
56991;SDS011;42885;49.754;18.636;2022-11-24T04:30:25;70.67;;;29.42;;
56991;SDS011;42885;49.754;18.636;2022-11-24T04:32:57;73.97;;;31.12;;
56991;SDS011;42885;49.754;18.636;2022-11-24T04:35:27;69.80;;;31.60;;
56991;SDS011;42885;49.754;18.636;2022-11-24T04:38:05;70.60;;;32.85;;
56991;SDS011;42885;49.754;18.636;2022-11-24T04:40:31;79.97;;;32.70;;
56991;SDS011;42885;49.754;18.636;2022-11-24T04:43:02;68.33;;;29.85;;
56991;SDS011;42885;49.754;18.636;2022-11-24T04:45:33;75.22;;;33.45;;
56991;SDS011;42885;49.754;18.636;2022-11-24T04:48:04;70.40;;;34.07;;
56991;SDS011;42885;49.754;18.636;2022-11-24T04:50:35;75.65;;;34.43;;
56991;SDS011;42885;49.754;18.636;2022-11-24T04:53:09;72.50;;;31.42;;
56991;SDS011;42885;49.754;18.636;2022-11-24T04:55:41;70.37;;;29.83;;
56991;SDS011;42885;49.754;18.636;2022-11-24T04:58:13;79.55;;;30.05;;
56991;SDS011;42885;49.754;18.636;2022-11-24T05:00:44;71.55;;;28.17;;
56991;SDS011;42885;49.754;18.636;2022-11-24T05:03:15;76.93;;;30.97;;
56991;SDS011;42885;49.754;18.636;2022-11-24T05:05:45;79.70;;;29.00;;
56991;SDS011;42885;49.754;18.636;2022-11-24T05:08:16;75.75;;;31.45;;
56991;SDS011;42885;49.754;18.636;2022-11-24T05:10:47;77.97;;;32.50;;
56991;SDS011;42885;49.754;18.636;2022-11-24T05:13:18;69.27;;;31.85;;
56991;SDS011;42885;49.754;18.636;2022-11-24T05:15:49;72.62;;;32.23;;
56991;SDS011;42885;49.754;18.636;2022-11-24T05:18:20;68.22;;;32.65;;
56991;SDS011;42885;49.754;18.636;2022-11-24T05:20:51;70.45;;;32.23;;
56991;SDS011;42885;49.754;18.636;2022-11-24T05:23:22;75.35;;;31.12;;
56991;SDS011;42885;49.754;18.636;2022-11-24T05:25:53;70.20;;;32.90;;
56991;SDS011;42885;49.754;18.636;2022-11-24T05:28:26;77.97;;;32.28;;
56991;SDS011;42885;49.754;18.636;2022-11-24T05:30:57;79.75;;;30.65;;
56991;SDS011;42885;49.754;18.636;2022-11-24T05:33:29;74.00;;;32.42;;
56991;SDS011;42885;49.754;18.636;2022-11-24T05:36:04;80.90;;;31.60;;
56991;SDS011;42885;49.754;18.636;2022-11-24T05:38:36;78.02;;;31.60;;
56991;SDS011;42885;49.754;18.636;2022-11-24T05:41:07;90.38;;;33.28;;
56991;SDS011;42885;49.754;18.636;2022-11-24T05:43:38;93.45;;;34.48;;
56991;SDS011;42885;49.754;18.636;2022-11-24T05:46:09;84.62;;;35.05;;
56991;SDS011;42885;49.754;18.636;2022-11-24T05:48:40;89.32;;;33.88;;
56991;SDS011;42885;49.754;18.636;2022-11-24T05:51:11;94.67;;;35.50;;
56991;SDS011;42885;49.754;18.636;2022-11-24T05:53:42;96.70;;;36.48;;
56991;SDS011;42885;49.754;18.636;2022-11-24T05:56:13;93.87;;;35.20;;
56991;SDS011;42885;49.754;18.636;2022-11-24T05:58:44;338.00;;;203.47;;
56991;SDS011;42885;49.754;18.636;2022-11-24T06:01:15;156.27;;;82.57;;
56991;SDS011;42885;49.754;18.636;2022-11-24T06:03:46;100.75;;;35.78;;
56991;SDS011;42885;49.754;18.636;2022-11-24T06:06:17;96.85;;;36.35;;
56991;SDS011;42885;49.754;18.636;2022-11-24T06:08:48;95.22;;;34.53;;
56991;SDS011;42885;49.754;18.636;2022-11-24T06:11:19;100.53;;;34.15;;
56991;SDS011;42885;49.754;18.636;2022-11-24T06:13:50;97.20;;;34.83;;
56991;SDS011;42885;49.754;18.636;2022-11-24T06:16:21;107.37;;;37.07;;
56991;SDS011;42885;49.754;18.636;2022-11-24T06:18:52;99.22;;;36.48;;
56991;SDS011;42885;49.754;18.636;2022-11-24T06:21:23;96.05;;;34.38;;
56991;SDS011;42885;49.754;18.636;2022-11-24T06:23:54;103.92;;;36.63;;
56991;SDS011;42885;49.754;18.636;2022-11-24T06:26:25;106.70;;;35.52;;
56991;SDS011;42885;49.754;18.636;2022-11-24T06:28:56;100.60;;;36.98;;
56991;SDS011;42885;49.754;18.636;2022-11-24T06:31:27;99.17;;;35.92;;
56991;SDS011;42885;49.754;18.636;2022-11-24T06:33:58;108.05;;;36.95;;
56991;SDS011;42885;49.754;18.636;2022-11-24T06:36:30;105.07;;;35.88;;
56991;SDS011;42885;49.754;18.636;2022-11-24T06:39:01;110.85;;;37.53;;
56991;SDS011;42885;49.754;18.636;2022-11-24T06:41:33;109.37;;;37.70;;
56991;SDS011;42885;49.754;18.636;2022-11-24T06:44:04;115.20;;;39.85;;
56991;SDS011;42885;49.754;18.636;2022-11-24T06:46:35;109.22;;;40.23;;
56991;SDS011;42885;49.754;18.636;2022-11-24T06:49:06;101.22;;;39.73;;
56991;SDS011;42885;49.754;18.636;2022-11-24T06:51:37;105.95;;;38.28;;
56991;SDS011;42885;49.754;18.636;2022-11-24T06:54:08;116.13;;;41.63;;
56991;SDS011;42885;49.754;18.636;2022-11-24T06:56:41;106.10;;;37.78;;
56991;SDS011;42885;49.754;18.636;2022-11-24T06:59:16;105.05;;;39.55;;
56991;SDS011;42885;49.754;18.636;2022-11-24T07:01:48;107.32;;;36.90;;
56991;SDS011;42885;49.754;18.636;2022-11-24T07:04:19;112.08;;;38.98;;
56991;SDS011;42885;49.754;18.636;2022-11-24T07:06:50;106.60;;;39.67;;
56991;SDS011;42885;49.754;18.636;2022-11-24T07:09:21;112.70;;;36.90;;
56991;SDS011;42885;49.754;18.636;2022-11-24T07:11:53;109.05;;;38.13;;
56991;SDS011;42885;49.754;18.636;2022-11-24T07:14:25;106.03;;;37.13;;
56991;SDS011;42885;49.754;18.636;2022-11-24T07:16:56;113.95;;;39.55;;
56991;SDS011;42885;49.754;18.636;2022-11-24T07:19:27;99.77;;;36.03;;
56991;SDS011;42885;49.754;18.636;2022-11-24T07:21:58;98.30;;;35.40;;
56991;SDS011;42885;49.754;18.636;2022-11-24T07:24:29;106.78;;;38.42;;
56991;SDS011;42885;49.754;18.636;2022-11-24T07:27:00;103.55;;;37.35;;
56991;SDS011;42885;49.754;18.636;2022-11-24T07:29:30;98.12;;;36.00;;
56991;SDS011;42885;49.754;18.636;2022-11-24T07:32:01;107.32;;;39.18;;
56991;SDS011;42885;49.754;18.636;2022-11-24T07:34:32;101.18;;;38.75;;
56991;SDS011;42885;49.754;18.636;2022-11-24T07:37:03;99.42;;;38.78;;
56991;SDS011;42885;49.754;18.636;2022-11-24T07:39:34;104.37;;;37.87;;
56991;SDS011;42885;49.754;18.636;2022-11-24T07:42:05;98.00;;;38.33;;
56991;SDS011;42885;49.754;18.636;2022-11-24T07:44:37;94.15;;;37.80;;
56991;SDS011;42885;49.754;18.636;2022-11-24T07:47:08;108.97;;;40.03;;
56991;SDS011;42885;49.754;18.636;2022-11-24T07:49:39;107.32;;;40.28;;
56991;SDS011;42885;49.754;18.636;2022-11-24T07:52:10;105.05;;;39.23;;
56991;SDS011;42885;49.754;18.636;2022-11-24T07:54:41;101.05;;;38.75;;
56991;SDS011;42885;49.754;18.636;2022-11-24T07:57:12;98.58;;;37.75;;
56991;SDS011;42885;49.754;18.636;2022-11-24T07:59:43;94.28;;;37.67;;
56991;SDS011;42885;49.754;18.636;2022-11-24T08:02:20;107.47;;;39.18;;
56991;SDS011;42885;49.754;18.636;2022-11-24T08:04:47;94.37;;;37.95;;
56991;SDS011;42885;49.754;18.636;2022-11-24T08:07:18;102.85;;;39.42;;
56991;SDS011;42885;49.754;18.636;2022-11-24T08:09:49;102.22;;;39.23;;
56991;SDS011;42885;49.754;18.636;2022-11-24T08:12:20;106.50;;;39.92;;
56991;SDS011;42885;49.754;18.636;2022-11-24T08:14:51;99.07;;;37.85;;
56991;SDS011;42885;49.754;18.636;2022-11-24T08:17:22;101.90;;;39.98;;
56991;SDS011;42885;49.754;18.636;2022-11-24T08:19:53;112.97;;;42.10;;
56991;SDS011;42885;49.754;18.636;2022-11-24T08:22:24;118.57;;;46.50;;
56991;SDS011;42885;49.754;18.636;2022-11-24T08:24:55;105.67;;;40.35;;
56991;SDS011;42885;49.754;18.636;2022-11-24T08:27:26;102.58;;;40.65;;
56991;SDS011;42885;49.754;18.636;2022-11-24T08:29:59;111.00;;;40.12;;
56991;SDS011;42885;49.754;18.636;2022-11-24T08:32:30;111.57;;;40.50;;
56991;SDS011;42885;49.754;18.636;2022-11-24T08:35:01;110.32;;;41.37;;
56991;SDS011;42885;49.754;18.636;2022-11-24T08:37:32;104.87;;;40.30;;
56991;SDS011;42885;49.754;18.636;2022-11-24T08:40:03;117.55;;;43.68;;
56991;SDS011;42885;49.754;18.636;2022-11-24T08:42:34;115.52;;;39.48;;
56991;SDS011;42885;49.754;18.636;2022-11-24T08:45:05;119.70;;;41.17;;
56991;SDS011;42885;49.754;18.636;2022-11-24T08:47:37;123.07;;;43.25;;
56991;SDS011;42885;49.754;18.636;2022-11-24T08:50:08;117.85;;;41.20;;
56991;SDS011;42885;49.754;18.636;2022-11-24T08:52:39;112.70;;;40.30;;
56991;SDS011;42885;49.754;18.636;2022-11-24T08:55:10;112.60;;;40.48;;
56991;SDS011;42885;49.754;18.636;2022-11-24T08:57:41;116.47;;;40.15;;
56991;SDS011;42885;49.754;18.636;2022-11-24T09:00:12;109.57;;;38.50;;
56991;SDS011;42885;49.754;18.636;2022-11-24T09:02:45;113.00;;;39.45;;
56991;SDS011;42885;49.754;18.636;2022-11-24T09:05:27;110.70;;;40.33;;
56991;SDS011;42885;49.754;18.636;2022-11-24T09:07:57;105.17;;;38.88;;
56991;SDS011;42885;49.754;18.636;2022-11-24T09:10:28;116.35;;;41.18;;
56991;SDS011;42885;49.754;18.636;2022-11-24T09:12:59;122.60;;;40.95;;
56991;SDS011;42885;49.754;18.636;2022-11-24T09:15:30;101.10;;;39.55;;
56991;SDS011;42885;49.754;18.636;2022-11-24T09:18:03;116.62;;;41.18;;
56991;SDS011;42885;49.754;18.636;2022-11-24T09:20:34;115.85;;;41.00;;
56991;SDS011;42885;49.754;18.636;2022-11-24T09:23:05;115.08;;;41.70;;
56991;SDS011;42885;49.754;18.636;2022-11-24T09:25:36;115.80;;;41.33;;
56991;SDS011;42885;49.754;18.636;2022-11-24T09:28:07;113.83;;;41.15;;
56991;SDS011;42885;49.754;18.636;2022-11-24T09:30:38;119.30;;;42.23;;
56991;SDS011;42885;49.754;18.636;2022-11-24T09:33:08;111.97;;;41.10;;
56991;SDS011;42885;49.754;18.636;2022-11-24T09:35:39;109.95;;;40.88;;
56991;SDS011;42885;49.754;18.636;2022-11-24T09:38:10;114.30;;;41.88;;
56991;SDS011;42885;49.754;18.636;2022-11-24T09:40:41;99.92;;;40.78;;
56991;SDS011;42885;49.754;18.636;2022-11-24T09:43:17;108.10;;;38.63;;
56991;SDS011;42885;49.754;18.636;2022-11-24T09:45:59;111.15;;;38.73;;
56991;SDS011;42885;49.754;18.636;2022-11-24T09:48:45;115.47;;;40.45;;
56991;SDS011;42885;49.754;18.636;2022-11-24T09:51:17;112.92;;;41.77;;
56991;SDS011;42885;49.754;18.636;2022-11-24T09:54:08;103.05;;;39.80;;
56991;SDS011;42885;49.754;18.636;2022-11-24T09:56:37;110.43;;;39.70;;
56991;SDS011;42885;49.754;18.636;2022-11-24T09:59:11;114.80;;;42.45;;
56991;SDS011;42885;49.754;18.636;2022-11-24T10:01:55;111.32;;;40.58;;
56991;SDS011;42885;49.754;18.636;2022-11-24T10:04:33;120.62;;;43.65;;
56991;SDS011;42885;49.754;18.636;2022-11-24T10:07:12;111.80;;;40.92;;
56991;SDS011;42885;49.754;18.636;2022-11-24T10:13:03;110.45;;;41.18;;
56991;SDS011;42885;49.754;18.636;2022-11-24T10:21:13;124.03;;;40.30;;
56991;SDS011;42885;49.754;18.636;2022-11-24T10:26:45;119.00;;;41.50;;
56991;SDS011;42885;49.754;18.636;2022-11-24T10:29:21;127.07;;;43.83;;
56991;SDS011;42885;49.754;18.636;2022-11-24T10:31:54;120.62;;;42.62;;
56991;SDS011;42885;49.754;18.636;2022-11-24T10:34:30;115.60;;;41.90;;
56991;SDS011;42885;49.754;18.636;2022-11-24T10:37:10;121.45;;;42.13;;
56991;SDS011;42885;49.754;18.636;2022-11-24T10:42:35;118.57;;;40.87;;
56991;SDS011;42885;49.754;18.636;2022-11-24T10:47:44;130.95;;;44.53;;
56991;SDS011;42885;49.754;18.636;2022-11-24T10:50:22;126.67;;;43.87;;
56991;SDS011;42885;49.754;18.636;2022-11-24T10:52:59;132.57;;;44.38;;
56991;SDS011;42885;49.754;18.636;2022-11-24T10:58:32;126.17;;;42.47;;
56991;SDS011;42885;49.754;18.636;2022-11-24T11:03:52;126.83;;;43.43;;
56991;SDS011;42885;49.754;18.636;2022-11-24T11:06:28;128.27;;;43.05;;
56991;SDS011;42885;49.754;18.636;2022-11-24T11:09:24;140.03;;;46.92;;
56991;SDS011;42885;49.754;18.636;2022-11-24T11:11:37;130.10;;;45.38;;
56991;SDS011;42885;49.754;18.636;2022-11-24T11:14:10;140.92;;;45.78;;
56991;SDS011;42885;49.754;18.636;2022-11-24T11:16:49;136.10;;;46.28;;
56991;SDS011;42885;49.754;18.636;2022-11-24T11:24:46;129.82;;;46.08;;
56991;SDS011;42885;49.754;18.636;2022-11-24T11:27:20;125.93;;;45.10;;
56991;SDS011;42885;49.754;18.636;2022-11-24T11:30:04;134.15;;;46.60;;
56991;SDS011;42885;49.754;18.636;2022-11-24T11:32:55;125.47;;;46.33;;
56991;SDS011;42885;49.754;18.636;2022-11-24T11:35:28;132.25;;;47.40;;
56991;SDS011;42885;49.754;18.636;2022-11-24T11:38:05;132.10;;;46.77;;
56991;SDS011;42885;49.754;18.636;2022-11-24T11:40:36;127.87;;;47.73;;
56991;SDS011;42885;49.754;18.636;2022-11-24T11:43:23;133.93;;;47.25;;
56991;SDS011;42885;49.754;18.636;2022-11-24T11:46:31;146.65;;;49.65;;
56991;SDS011;42885;49.754;18.636;2022-11-24T11:48:44;141.90;;;48.40;;
56991;SDS011;42885;49.754;18.636;2022-11-24T11:56:49;135.35;;;46.30;;
56991;SDS011;42885;49.754;18.636;2022-11-24T11:59:30;128.90;;;45.52;;
56991;SDS011;42885;49.754;18.636;2022-11-24T12:04:55;126.62;;;44.60;;
56991;SDS011;42885;49.754;18.636;2022-11-24T12:07:43;131.05;;;46.10;;
56991;SDS011;42885;49.754;18.636;2022-11-24T12:13:29;126.47;;;44.53;;
56991;SDS011;42885;49.754;18.636;2022-11-24T12:16:30;126.75;;;45.48;;
56991;SDS011;42885;49.754;18.636;2022-11-24T12:19:09;127.80;;;44.67;;
56991;SDS011;42885;49.754;18.636;2022-11-24T12:24:39;134.55;;;48.30;;
56991;SDS011;42885;49.754;18.636;2022-11-24T12:27:19;132.90;;;46.57;;
56991;SDS011;42885;49.754;18.636;2022-11-24T12:30:11;125.55;;;46.40;;
56991;SDS011;42885;49.754;18.636;2022-11-24T12:33:03;122.82;;;43.23;;
56991;SDS011;42885;49.754;18.636;2022-11-24T12:35:38;126.42;;;44.03;;
56991;SDS011;42885;49.754;18.636;2022-11-24T12:38:24;116.20;;;43.48;;
56991;SDS011;42885;49.754;18.636;2022-11-24T12:40:52;119.67;;;43.13;;
56991;SDS011;42885;49.754;18.636;2022-11-24T12:46:18;112.17;;;42.83;;
56991;SDS011;42885;49.754;18.636;2022-11-24T12:51:45;108.93;;;41.57;;
56991;SDS011;42885;49.754;18.636;2022-11-24T12:54:28;112.20;;;40.57;;
56991;SDS011;42885;49.754;18.636;2022-11-24T12:57:04;118.70;;;42.45;;
56991;SDS011;42885;49.754;18.636;2022-11-24T12:59:42;116.80;;;42.25;;
56991;SDS011;42885;49.754;18.636;2022-11-24T13:04:53;107.65;;;40.65;;
56991;SDS011;42885;49.754;18.636;2022-11-24T13:07:44;110.75;;;43.17;;
56991;SDS011;42885;49.754;18.636;2022-11-24T13:12:57;109.80;;;42.62;;
56991;SDS011;42885;49.754;18.636;2022-11-24T13:15:31;114.92;;;42.73;;
56991;SDS011;42885;49.754;18.636;2022-11-24T13:18:39;114.47;;;43.53;;
56991;SDS011;42885;49.754;18.636;2022-11-24T13:20:39;116.20;;;42.20;;
56991;SDS011;42885;49.754;18.636;2022-11-24T13:23:27;115.28;;;42.80;;
56991;SDS011;42885;49.754;18.636;2022-11-24T13:25:44;114.30;;;44.42;;
56991;SDS011;42885;49.754;18.636;2022-11-24T13:31:25;119.35;;;42.00;;
56991;SDS011;42885;49.754;18.636;2022-11-24T13:33:56;108.20;;;40.37;;
56991;SDS011;42885;49.754;18.636;2022-11-24T13:36:30;106.78;;;41.83;;
56991;SDS011;42885;49.754;18.636;2022-11-24T13:39:03;123.87;;;43.10;;
56991;SDS011;42885;49.754;18.636;2022-11-24T13:49:38;122.70;;;43.23;;
56991;SDS011;42885;49.754;18.636;2022-11-24T13:57:52;116.90;;;41.80;;
56991;SDS011;42885;49.754;18.636;2022-11-24T14:00:32;113.83;;;42.10;;
56991;SDS011;42885;49.754;18.636;2022-11-24T14:03:14;117.27;;;42.63;;
56991;SDS011;42885;49.754;18.636;2022-11-24T14:05:49;121.50;;;44.75;;
56991;SDS011;42885;49.754;18.636;2022-11-24T14:08:27;116.60;;;44.88;;
56991;SDS011;42885;49.754;18.636;2022-11-24T14:10:56;106.83;;;41.70;;
56991;SDS011;42885;49.754;18.636;2022-11-24T14:13:29;116.45;;;45.10;;
56991;SDS011;42885;49.754;18.636;2022-11-24T14:18:42;119.42;;;44.38;;
56991;SDS011;42885;49.754;18.636;2022-11-24T14:24:11;114.28;;;42.62;;
56991;SDS011;42885;49.754;18.636;2022-11-24T14:26:47;125.50;;;44.33;;
56991;SDS011;42885;49.754;18.636;2022-11-24T14:29:20;117.67;;;45.45;;
56991;SDS011;42885;49.754;18.636;2022-11-24T14:31:56;150.00;;;59.18;;
56991;SDS011;42885;49.754;18.636;2022-11-24T14:34:29;109.32;;;43.92;;
56991;SDS011;42885;49.754;18.636;2022-11-24T14:37:02;121.27;;;44.97;;
56991;SDS011;42885;49.754;18.636;2022-11-24T14:39:38;117.05;;;44.03;;
56991;SDS011;42885;49.754;18.636;2022-11-24T14:42:22;115.40;;;43.77;;
56991;SDS011;42885;49.754;18.636;2022-11-24T14:44:56;115.75;;;43.05;;
56991;SDS011;42885;49.754;18.636;2022-11-24T14:47:31;108.87;;;42.17;;
56991;SDS011;42885;49.754;18.636;2022-11-24T14:50:06;110.22;;;41.02;;
56991;SDS011;42885;49.754;18.636;2022-11-24T14:52:46;110.40;;;42.93;;
56991;SDS011;42885;49.754;18.636;2022-11-24T14:55:27;118.90;;;46.33;;
56991;SDS011;42885;49.754;18.636;2022-11-24T14:58:01;112.65;;;43.78;;
56991;SDS011;42885;49.754;18.636;2022-11-24T15:00:34;116.80;;;43.53;;
56991;SDS011;42885;49.754;18.636;2022-11-24T15:03:25;123.10;;;45.03;;
56991;SDS011;42885;49.754;18.636;2022-11-24T15:05:54;113.22;;;44.70;;
56991;SDS011;42885;49.754;18.636;2022-11-24T15:08:36;124.53;;;45.20;;
56991;SDS011;42885;49.754;18.636;2022-11-24T15:11:09;111.30;;;44.48;;
56991;SDS011;42885;49.754;18.636;2022-11-24T15:13:40;109.17;;;43.30;;
56991;SDS011;42885;49.754;18.636;2022-11-24T15:18:54;117.55;;;46.37;;
56991;SDS011;42885;49.754;18.636;2022-11-24T15:21:28;103.23;;;44.27;;
56991;SDS011;42885;49.754;18.636;2022-11-24T15:24:03;121.22;;;46.92;;
56991;SDS011;42885;49.754;18.636;2022-11-24T15:26:44;109.22;;;45.50;;
56991;SDS011;42885;49.754;18.636;2022-11-24T15:29:16;110.15;;;43.98;;
56991;SDS011;42885;49.754;18.636;2022-11-24T15:31:47;106.15;;;41.70;;
56991;SDS011;42885;49.754;18.636;2022-11-24T15:34:18;110.28;;;43.92;;
56991;SDS011;42885;49.754;18.636;2022-11-24T15:36:49;113.25;;;43.80;;
56991;SDS011;42885;49.754;18.636;2022-11-24T15:39:20;135.48;;;51.45;;
56991;SDS011;42885;49.754;18.636;2022-11-24T15:41:51;147.00;;;59.80;;
56991;SDS011;42885;49.754;18.636;2022-11-24T15:44:21;161.82;;;63.52;;
56991;SDS011;42885;49.754;18.636;2022-11-24T15:46:52;144.50;;;56.98;;
56991;SDS011;42885;49.754;18.636;2022-11-24T15:49:23;141.55;;;58.45;;
56991;SDS011;42885;49.754;18.636;2022-11-24T15:51:54;139.37;;;54.08;;
56991;SDS011;42885;49.754;18.636;2022-11-24T15:54:25;127.05;;;51.77;;
56991;SDS011;42885;49.754;18.636;2022-11-24T15:56:57;128.65;;;52.23;;